Time;durP1;ratioP1;P1;durP2;ratioP2;P2;SDS_P1;SDS_P2;PMS_P1;PMS_P2;Temp;Humidity;BMP_temperature;BMP_pressure;BME280_temperature;BME280_humidity;BME280_pressure;Samples;Min_cycle;Max_cycle;Signal;HPM_P1;HPM_P2
2023/10/09 07:49:53;;;;;;;11.98;3.20;;;;;;;;;;6006540;22;20451;-83
2023/10/09 08:28:45;;;;;;;10.80;3.00;;;;;;;;;;5367176;22;20371;-86
2023/10/09 08:33:58;;;;;;;10.80;2.78;;;;;;;;;;5077519;28;20497;-93
2023/10/09 08:36:35;;;;;;;9.38;3.30;;;;;;;;;;5076797;28;20025;-92
2023/10/09 08:39:25;;;;;;;9.82;2.60;;;;;;;;;;5076905;28;20082;-87
2023/10/09 08:41:51;;;;;;;10.95;3.38;;;;;;;;;;5076765;28;20036;-91
2023/10/09 08:44:22;;;;;;;9.68;3.00;;;;;;;;;;5077121;28;20109;-94
2023/10/09 08:46:50;;;;;;;10.48;3.20;;;;;;;;;;5059240;28;20043;-94
2023/10/09 08:49:16;;;;;;;14.05;2.85;;;;;;;;;;5077445;28;20064;-90
2023/10/09 08:51:42;;;;;;;12.70;3.83;;;;;;;;;;5077372;28;20595;-93
2023/10/09 08:54:11;;;;;;;14.52;3.45;;;;;;;;;;5076941;28;20060;-94
2023/10/09 08:56:39;;;;;;;13.93;3.60;;;;;;;;;;5077351;28;20025;-94
2023/10/09 08:59:05;;;;;;;13.35;3.20;;;;;;;;;;5077088;28;20111;-91
2023/10/09 09:01:32;;;;;;;14.70;3.47;;;;;;;;;;5076593;28;20139;-92
2023/10/09 09:03:59;;;;;;;11.25;2.65;;;;;;;;;;5076372;28;20159;-90
2023/10/09 09:06:25;;;;;;;16.23;3.40;;;;;;;;;;5075810;28;20536;-90
2023/10/09 09:08:59;;;;;;;16.63;3.60;;;;;;;;;;5076069;28;20063;-91
2023/10/09 09:11:25;;;;;;;12.00;3.20;;;;;;;;;;5076006;28;20051;-85
2023/10/09 17:01:13;;;;;;;9.57;2.65;;;;;;;;;;4983438;28;20218;-84
2023/10/09 17:03:43;;;;;;;8.73;2.55;;;;;;;;;;4977318;28;20113;-82
2023/10/09 17:06:11;;;;;;;;;;;;;;;;;;4977402;28;20392;-81
2023/10/09 17:08:42;;;;;;;14.98;4.60;;;;;;;;;;4993373;28;20367;-85
2023/10/09 17:11:15;;;;;;;13.45;4.18;;;;;;;;;;4996263;28;20122;-82
2023/10/09 17:13:52;;;;;;;10.45;2.58;;;;;;;;;;4996423;28;20376;-82
2023/10/09 17:16:19;;;;;;;11.65;3.60;;;;;;;;;;4996247;28;20042;-81
2023/10/09 17:18:55;;;;;;;11.85;2.58;;;;;;;;;;4995828;28;20415;-84
2023/10/09 17:21:23;;;;;;;7.07;2.50;;;;;;;;;;5011092;28;20037;-83
2023/10/09 17:23:50;;;;;;;12.45;3.33;;;;;;;;;;4996308;28;20506;-84
2023/10/09 17:26:21;;;;;;;11.07;2.72;;;;;;;;;;4996532;28;20118;-83
2023/10/09 17:28:46;;;;;;;7.53;3.00;;;;;;;;;;4995970;28;20078;-80
2023/10/09 17:31:12;;;;;;;10.60;2.90;;;;;;;;;;4995872;28;20427;-82
2023/10/09 17:33:38;;;;;;;10.73;2.65;;;;;;;;;;4996147;28;20031;-84
2023/10/09 17:36:07;;;;;;;10.18;3.10;;;;;;;;;;4995937;28;20026;-84
2023/10/09 17:38:33;;;;;;;9.85;4.03;;;;;;;;;;4996060;28;20495;-84
2023/10/09 17:41:01;;;;;;;8.73;3.30;;;;;;;;;;4995806;28;20037;-84
2023/10/09 17:43:27;;;;;;;11.77;3.70;;;;;;;;;;4995874;28;20022;-85
2023/10/09 17:45:56;;;;;;;8.70;3.67;;;;;;;;;;4995683;28;20022;-83
2023/10/09 17:48:22;;;;;;;11.32;3.28;;;;;;;;;;4995649;28;20023;-85
2023/10/09 17:50:48;;;;;;;10.88;3.05;;;;;;;;;;4995880;28;20081;-87
2023/10/09 17:53:14;;;;;;;13.68;3.42;;;;;;;;;;4995831;28;20403;-86
2023/10/09 17:55:40;;;;;;;8.20;2.45;;;;;;;;;;4994311;28;20113;-87
2023/10/09 17:58:11;;;;;;;9.25;2.90;;;;;;;;;;4995167;28;20029;-86
2023/10/09 18:00:41;;;;;;;10.93;3.50;;;;;;;;;;5010634;28;20117;-83
2023/10/09 18:03:20;;;;;;;8.05;2.90;;;;;;;;;;4995364;28;20468;-85
2023/10/09 18:05:46;;;;;;;14.88;3.97;;;;;;;;;;4995615;28;20027;-85
2023/10/09 18:08:15;;;;;;;12.13;3.60;;;;;;;;;;5010913;28;20030;-81
2023/10/09 18:10:43;;;;;;;12.27;3.85;;;;;;;;;;4995212;28;20022;-83
2023/10/09 18:13:19;;;;;;;11.77;3.80;;;;;;;;;;4995226;28;20034;-82
2023/10/09 18:15:45;;;;;;;10.48;2.97;;;;;;;;;;4995317;28;20025;-81
2023/10/09 18:18:16;;;;;;;10.15;3.58;;;;;;;;;;4995040;28;20026;-85
2023/10/09 18:20:42;;;;;;;9.82;3.00;;;;;;;;;;4995321;28;20045;-83
2023/10/09 18:23:09;;;;;;;13.82;3.63;;;;;;;;;;4994927;28;20380;-86
2023/10/09 18:25:36;;;;;;;10.13;4.03;;;;;;;;;;4995275;28;20026;-87
2023/10/09 18:28:02;;;;;;;10.90;4.00;;;;;;;;;;4995504;28;20034;-82
2023/10/09 18:30:28;;;;;;;8.02;2.85;;;;;;;;;;4994870;28;20407;-82
2023/10/09 18:32:56;;;;;;;7.00;2.83;;;;;;;;;;4995221;28;20031;-84
2023/10/09 18:35:27;;;;;;;10.80;3.10;;;;;;;;;;4994393;28;20038;-85
2023/10/09 18:37:58;;;;;;;8.00;3.00;;;;;;;;;;4994761;28;20469;-83
2023/10/09 18:40:35;;;;;;;9.20;3.00;;;;;;;;;;4993056;28;20522;-82
2023/10/09 18:43:04;;;;;;;8.32;3.83;;;;;;;;;;4991038;28;20492;-83
2023/10/09 18:45:33;;;;;;;10.40;3.55;;;;;;;;;;4994104;28;20131;-80
2023/10/09 18:48:00;;;;;;;11.73;3.67;;;;;;;;;;4993802;28;20133;-81
2023/10/09 18:50:28;;;;;;;9.77;3.05;;;;;;;;;;4994244;28;20037;-81
2023/10/09 18:52:54;;;;;;;12.30;3.72;;;;;;;;;;4994486;28;20053;-81
2023/10/09 18:55:20;;;;;;;11.52;3.22;;;;;;;;;;4994263;28;20026;-81
2023/10/09 18:57:47;;;;;;;11.40;3.78;;;;;;;;;;4994095;28;20026;-81
2023/10/09 19:00:20;;;;;;;16.00;4.18;;;;;;;;;;4994369;28;20022;-81
2023/10/09 19:02:51;;;;;;;10.15;4.07;;;;;;;;;;4974692;28;20045;-81
2023/10/09 19:05:19;;;;;;;9.98;4.57;;;;;;;;;;4974778;28;20037;-81
2023/10/09 19:07:45;;;;;;;10.27;3.10;;;;;;;;;;4974782;28;20469;-81
2023/10/09 19:10:10;;;;;;;12.30;4.65;;;;;;;;;;4974361;28;20038;-82
2023/10/09 19:12:36;;;;;;;10.57;4.68;;;;;;;;;;4974790;28;20027;-82
2023/10/09 19:15:08;;;;;;;11.95;4.00;;;;;;;;;;4974785;28;20023;-82
2023/10/09 19:17:36;;;;;;;10.60;4.15;;;;;;;;;;4974007;28;20038;-81
2023/10/09 19:20:04;;;;;;;10.18;3.60;;;;;;;;;;4973978;28;20046;-81
2023/10/09 19:22:33;;;;;;;8.48;3.47;;;;;;;;;;4974508;28;20030;-82
2023/10/09 19:24:58;;;;;;;14.27;3.40;;;;;;;;;;4973702;28;20060;-84
2023/10/09 19:27:29;;;;;;;10.95;3.45;;;;;;;;;;4974421;28;20026;-83
2023/10/09 19:29:55;;;;;;;7.95;2.58;;;;;;;;;;4974640;28;20574;-84
2023/10/09 19:32:20;;;;;;;11.50;3.30;;;;;;;;;;4974574;28;20393;-86
2023/10/09 19:34:47;;;;;;;10.35;3.30;;;;;;;;;;4974604;28;20027;-85
2023/10/09 19:37:12;;;;;;;9.10;2.70;;;;;;;;;;4973222;28;20481;-83
2023/10/09 19:39:40;;;;;;;8.68;2.83;;;;;;;;;;4974951;28;20066;-83
2023/10/09 19:42:06;;;;;;;9.15;2.50;;;;;;;;;;4974536;28;20129;-84
2023/10/09 19:44:32;;;;;;;8.40;2.90;;;;;;;;;;4974829;28;20110;-83
2023/10/09 19:46:57;;;;;;;7.15;2.83;;;;;;;;;;4974504;28;20114;-84
2023/10/09 19:49:23;;;;;;;10.45;2.85;;;;;;;;;;4974932;28;20113;-83
2023/10/09 19:51:49;;;;;;;8.32;2.97;;;;;;;;;;4974453;28;20042;-84
2023/10/09 19:54:14;;;;;;;9.45;3.05;;;;;;;;;;4975104;28;20039;-82
2023/10/09 19:56:42;;;;;;;9.25;2.90;;;;;;;;;;4974366;28;20023;-84
2023/10/09 19:59:07;;;;;;;10.88;3.08;;;;;;;;;;4974668;28;20023;-84
2023/10/09 20:01:34;;;;;;;9.48;2.67;;;;;;;;;;4974045;28;20058;-84
2023/10/09 20:04:00;;;;;;;7.70;2.85;;;;;;;;;;4974477;28;20074;-84
2023/10/09 20:06:26;;;;;;;8.43;2.58;;;;;;;;;;4974477;28;20019;-84
2023/10/09 20:08:53;;;;;;;11.32;3.10;;;;;;;;;;4974413;28;20030;-84
2023/10/09 20:11:22;;;;;;;13.35;2.92;;;;;;;;;;4974628;28;20069;-84
2023/10/09 20:13:49;;;;;;;8.95;2.70;;;;;;;;;;4974299;28;20516;-82
2023/10/09 20:16:16;;;;;;;10.57;2.60;;;;;;;;;;4974243;28;20036;-82
2023/10/09 20:18:43;;;;;;;10.85;2.70;;;;;;;;;;4974380;28;20035;-83
2023/10/09 20:21:10;;;;;;;13.10;3.15;;;;;;;;;;4974021;28;20472;-83
2023/10/09 20:23:42;;;;;;;8.45;2.70;;;;;;;;;;4978031;28;20023;-83
2023/10/09 20:26:11;;;;;;;10.45;3.42;;;;;;;;;;4977800;28;20476;-83
2023/10/09 20:28:37;;;;;;;5.35;1.98;;;;;;;;;;4977650;28;20027;-82
2023/10/09 20:31:04;;;;;;;10.40;2.85;;;;;;;;;;4977682;28;20453;-82
2023/10/09 20:33:33;;;;;;;8.85;3.40;;;;;;;;;;4977690;28;20030;-82
2023/10/09 20:36:55;;;;;;;11.27;2.50;;;;;;;;;;4977707;28;20462;-82
2023/10/09 20:38:57;;;;;;;8.43;3.00;;;;;;;;;;4971822;28;20041;-82
2023/10/09 20:41:23;;;;;;;10.65;3.20;;;;;;;;;;4977694;28;20026;-82
2023/10/09 20:43:49;;;;;;;9.77;2.80;;;;;;;;;;4977543;28;20103;-83
2023/10/09 20:46:15;;;;;;;8.82;2.65;;;;;;;;;;4977318;28;20103;-82
2023/10/09 20:48:44;;;;;;;13.43;3.08;;;;;;;;;;4977600;28;20110;-82
2023/10/09 20:51:16;;;;;;;12.05;3.10;;;;;;;;;;4977562;28;20029;-82
2023/10/09 20:53:42;;;;;;;13.90;2.92;;;;;;;;;;4977326;28;20030;-83
2023/10/09 20:56:08;;;;;;;11.15;3.00;;;;;;;;;;4977208;28;20019;-82
2023/10/09 20:58:34;;;;;;;8.40;2.47;;;;;;;;;;4977259;28;20416;-82
2023/10/09 21:00:59;;;;;;;8.55;2.45;;;;;;;;;;4977073;28;20062;-82
2023/10/09 21:03:25;;;;;;;7.70;2.53;;;;;;;;;;4977148;28;20078;-83
2023/10/09 21:05:53;;;;;;;11.18;2.53;;;;;;;;;;4976934;28;20030;-82
2023/10/09 21:08:20;;;;;;;11.20;3.03;;;;;;;;;;4975786;28;20023;-82
2023/10/09 21:10:45;;;;;;;9.68;2.70;;;;;;;;;;4976984;28;20070;-82
2023/10/09 21:13:11;;;;;;;10.63;2.65;;;;;;;;;;4976822;28;20057;-83
2023/10/09 21:15:37;;;;;;;6.88;2.22;;;;;;;;;;4977121;28;20371;-82
2023/10/09 21:18:03;;;;;;;12.57;2.50;;;;;;;;;;4976845;28;20039;-83
2023/10/09 21:20:30;;;;;;;12.95;2.45;;;;;;;;;;4976926;28;20369;-82
2023/10/09 21:22:56;;;;;;;8.35;2.63;;;;;;;;;;4976677;28;20027;-82
2023/10/09 21:25:23;;;;;;;9.80;2.80;;;;;;;;;;4976923;28;20030;-82
2023/10/09 21:27:49;;;;;;;7.18;2.78;;;;;;;;;;4976671;28;20026;-81
2023/10/09 21:30:17;;;;;;;9.70;3.65;;;;;;;;;;4976668;28;20366;-82
2023/10/09 21:32:44;;;;;;;9.55;3.08;;;;;;;;;;4976080;28;20377;-81
2023/10/09 21:35:18;;;;;;;12.18;3.85;;;;;;;;;;4976719;28;20031;-81
2023/10/09 21:37:53;;;;;;;5.93;2.67;;;;;;;;;;4976737;28;20031;-81
2023/10/09 21:40:26;;;;;;;11.43;3.40;;;;;;;;;;4976440;28;20081;-82
2023/10/09 21:42:52;;;;;;;7.50;2.92;;;;;;;;;;4976499;28;20042;-82
2023/10/09 21:45:18;;;;;;;9.35;2.50;;;;;;;;;;4976371;28;20465;-82
2023/10/09 21:47:44;;;;;;;6.93;2.70;;;;;;;;;;4976457;28;20034;-82
2023/10/09 21:50:10;;;;;;;7.10;2.55;;;;;;;;;;4976630;28;20026;-82
2023/10/09 21:52:36;;;;;;;10.30;2.92;;;;;;;;;;4976215;28;20105;-82
2023/10/09 21:55:01;;;;;;;7.75;3.10;;;;;;;;;;4976239;28;20049;-81
2023/10/09 21:57:28;;;;;;;11.43;3.13;;;;;;;;;;4976309;28;20030;-80
2023/10/09 21:59:54;;;;;;;8.93;2.40;;;;;;;;;;4976219;28;20027;-81
2023/10/09 22:02:20;;;;;;;10.80;2.75;;;;;;;;;;4975818;28;20050;-81
2023/10/09 22:04:46;;;;;;;7.82;3.45;;;;;;;;;;4975958;28;20038;-81
2023/10/09 22:07:11;;;;;;;12.18;3.00;;;;;;;;;;4975848;28;20019;-83
2023/10/09 22:09:37;;;;;;;9.52;3.00;;;;;;;;;;4975929;28;20030;-81
2023/10/09 22:12:03;;;;;;;11.82;2.60;;;;;;;;;;4976087;28;20070;-83
2023/10/09 22:14:29;;;;;;;9.88;2.95;;;;;;;;;;4975999;28;20477;-84
2023/10/09 22:16:56;;;;;;;11.27;3.20;;;;;;;;;;4975455;28;20038;-83
2023/10/09 22:19:35;;;;;;;9.00;3.03;;;;;;;;;;4975798;28;20374;-84
2023/10/09 22:22:09;;;;;;;11.05;3.35;;;;;;;;;;4990582;28;20173;-84
2023/10/09 22:24:38;;;;;;;13.90;3.20;;;;;;;;;;4975907;28;20106;-83
2023/10/09 22:27:09;;;;;;;5.85;2.97;;;;;;;;;;4974192;28;20034;-83
2023/10/09 22:29:35;;;;;;;12.63;3.10;;;;;;;;;;4975542;28;20039;-85
2023/10/09 22:32:01;;;;;;;8.55;3.33;;;;;;;;;;4974350;28;20023;-81
